createdAt,value
2023-03-06T00:00:53.601Z,100522.97
2023-03-06T00:03:22.227Z,100519.50
2023-03-06T00:05:49.283Z,100510.72
2023-03-06T00:08:16.482Z,100512.56
2023-03-06T00:10:43.280Z,100508.25
2023-03-06T00:13:20.999Z,100513.63
2023-03-06T00:15:48.809Z,100512.81
2023-03-06T00:18:16.262Z,100511.06
2023-03-06T00:20:44.220Z,100503.88
2023-03-06T00:23:12.215Z,100504.69
2023-03-06T00:25:44.336Z,100506.44
2023-03-06T00:28:14.708Z,100499.19
2023-03-06T00:30:41.863Z,100498.44
2023-03-06T00:33:08.621Z,100494.19
2023-03-06T00:35:35.525Z,100494.28
2023-03-06T00:38:02.321Z,100490.94
2023-03-06T00:40:29.174Z,100484.69
2023-03-06T00:42:56.044Z,100486.41
2023-03-06T00:45:22.900Z,100474.03
2023-03-06T00:47:49.770Z,100474.16
2023-03-06T00:50:17.025Z,100466.31
2023-03-06T00:52:43.879Z,100463.88
2023-03-06T00:55:11.881Z,100459.66
2023-03-06T00:57:38.693Z,100459.81
2023-03-06T01:00:06.871Z,100460.81
2023-03-06T01:02:33.793Z,100453.84
2023-03-06T01:05:00.787Z,100453.94
2023-03-06T01:07:28.760Z,100459.25
2023-03-06T01:09:57.914Z,100453.09
2023-03-06T01:12:24.815Z,100455.53
2023-03-06T01:14:51.838Z,100457.16
2023-03-06T01:17:18.924Z,100457.03
2023-03-06T01:19:45.764Z,100452.53
2023-03-06T01:22:13.802Z,100454.28
2023-03-06T01:24:40.640Z,100449.97
2023-03-06T01:27:07.693Z,100439.56
2023-03-06T01:29:34.592Z,100439.69
2023-03-06T01:32:01.493Z,100445.00
2023-03-06T01:34:28.415Z,100448.50
2023-03-06T01:36:55.221Z,100441.44
2023-03-06T01:39:22.027Z,100440.63
2023-03-06T01:41:49.037Z,100436.34
2023-03-06T01:44:16.251Z,100440.03
2023-03-06T01:46:44.861Z,100443.66
2023-03-06T01:49:35.326Z,100429.38
2023-03-06T01:52:09.042Z,100431.41
2023-03-06T01:54:44.920Z,100419.25
2023-03-06T01:57:19.881Z,100414.94
2023-03-06T01:59:53.112Z,100416.06
2023-03-06T02:02:21.007Z,100406.47
2023-03-06T02:05:08.567Z,100404.00
2023-03-06T02:07:37.761Z,100405.81
2023-03-06T02:10:06.353Z,100402.34
2023-03-06T02:12:33.827Z,100399.81
2023-03-06T02:15:01.198Z,100403.41
2023-03-06T02:17:29.226Z,100406.13
2023-03-06T02:20:13.978Z,100394.66
2023-03-06T02:22:57.165Z,100393.91
2023-03-06T02:25:32.805Z,100394.03
2023-03-06T02:28:00.717Z,100385.22
2023-03-06T02:30:29.167Z,100377.25
2023-03-06T02:32:57.664Z,100387.09
2023-03-06T02:35:31.453Z,100386.28
2023-03-06T02:38:04.805Z,100389.03
2023-03-06T02:40:32.005Z,100381.19
2023-03-06T02:42:59.706Z,100382.13
2023-03-06T02:45:37.276Z,100376.03
2023-03-06T02:48:04.670Z,100374.31
2023-03-06T02:50:32.763Z,100385.91
2023-03-06T02:53:01.413Z,100377.13
2023-03-06T02:55:31.259Z,100375.56
2023-03-06T02:57:58.104Z,100369.44
2023-03-06T03:00:25.977Z,100372.16
2023-03-06T03:02:53.796Z,100382.03
2023-03-06T03:05:20.936Z,100367.06
2023-03-06T03:07:54.065Z,100373.34
2023-03-06T03:10:21.426Z,100363.72
2023-03-06T03:12:49.882Z,100362.84
2023-03-06T03:15:18.217Z,100353.19
2023-03-06T03:17:45.027Z,100351.47
2023-03-06T03:20:19.246Z,100349.72
2023-03-06T03:22:55.320Z,100336.53
2023-03-06T03:25:25.399Z,100341.78
2023-03-06T03:27:55.184Z,100335.53
2023-03-06T03:30:22.783Z,100328.47
2023-03-06T03:32:50.231Z,100328.47
2023-03-06T03:35:17.236Z,100321.44
2023-03-06T03:37:44.125Z,100315.28
2023-03-06T03:40:12.135Z,100319.72
2023-03-06T03:42:39.117Z,100308.28
2023-03-06T03:45:07.678Z,100310.09
2023-03-06T03:47:34.524Z,100306.53
2023-03-06T03:50:02.637Z,100304.78
2023-03-06T03:52:29.725Z,100300.22
2023-03-06T03:54:56.902Z,100294.00
2023-03-06T03:57:24.639Z,100288.69
2023-03-06T03:59:53.531Z,100288.63
2023-03-06T04:02:25.594Z,100292.25
2023-03-06T04:05:01.054Z,100291.25
2023-03-06T04:07:28.094Z,100292.06
2023-03-06T04:09:55.289Z,100299.97
2023-03-06T04:12:22.496Z,100290.25
2023-03-06T04:14:49.341Z,100289.28
2023-03-06T04:17:16.699Z,100285.69
2023-03-06T04:19:44.100Z,100285.69
2023-03-06T04:22:11.794Z,100277.72
2023-03-06T04:24:39.764Z,100270.63
2023-03-06T04:27:06.929Z,100273.34
2023-03-06T04:29:33.822Z,100275.19
2023-03-06T04:32:00.885Z,100271.59
2023-03-06T04:34:27.881Z,100273.34
2023-03-06T04:36:54.785Z,100269.75
2023-03-06T04:39:21.612Z,100270.75
2023-03-06T04:41:48.642Z,100278.75
2023-03-06T04:44:15.593Z,100280.50
2023-03-06T04:46:42.456Z,100276.97
2023-03-06T04:49:09.485Z,100273.34
2023-03-06T04:51:36.865Z,100265.31
2023-03-06T04:54:04.866Z,100269.75
2023-03-06T04:56:31.846Z,100262.72
2023-03-06T04:58:58.692Z,100262.72
2023-03-06T05:01:25.530Z,100253.78
2023-03-06T05:03:52.377Z,100257.28
2023-03-06T05:06:19.178Z,100257.16
2023-03-06T05:08:46.036Z,100249.97
2023-03-06T05:11:12.847Z,100256.03
2023-03-06T05:13:39.683Z,100244.56
2023-03-06T05:16:07.831Z,100248.00
2023-03-06T05:18:36.172Z,100250.50
2023-03-06T05:21:04.190Z,100244.19
2023-03-06T05:23:34.216Z,100247.78
2023-03-06T05:26:01.053Z,100245.06
2023-03-06T05:28:28.680Z,100244.09
2023-03-06T05:30:55.565Z,100238.72
2023-03-06T05:33:22.344Z,100231.59
2023-03-06T05:35:49.956Z,100227.88
2023-03-06T05:38:17.020Z,100233.19
2023-03-06T05:40:45.176Z,100234.94
2023-03-06T05:43:12.479Z,100223.34
2023-03-06T05:45:40.780Z,100227.75
2023-03-06T05:48:09.005Z,100228.50
2023-03-06T05:50:36.007Z,100223.19
2023-03-06T05:53:03.265Z,100222.31
2023-03-06T05:55:30.879Z,100228.44
2023-03-06T05:57:57.935Z,100223.94
2023-03-06T06:00:25.054Z,100223.78
2023-03-06T06:02:53.340Z,100226.38
2023-03-06T06:05:20.350Z,100220.09
2023-03-06T06:07:47.149Z,100224.47
2023-03-06T06:10:14.145Z,100229.72
2023-03-06T06:12:41.214Z,100230.47
2023-03-06T06:15:08.759Z,100221.59
2023-03-06T06:17:35.846Z,100229.47
2023-03-06T06:20:04.181Z,100225.91
2023-03-06T06:22:31.036Z,100225.91
2023-03-06T06:24:58.689Z,100228.63
2023-03-06T06:27:25.492Z,100228.63
2023-03-06T06:29:52.631Z,100227.75
2023-03-06T06:32:19.570Z,100223.41
2023-03-06T06:34:46.427Z,100229.56
2023-03-06T06:37:13.438Z,100226.75
2023-03-06T06:39:40.696Z,100219.50
2023-03-06T06:42:28.568Z,100224.78
2023-03-06T06:44:56.780Z,100228.25
2023-03-06T06:47:25.306Z,100228.25
2023-03-06T06:49:55.586Z,100224.66
2023-03-06T06:52:25.968Z,100222.81
2023-03-06T06:54:53.302Z,100227.13
2023-03-06T06:57:20.322Z,100233.19
2023-03-06T06:59:47.113Z,100227.75
2023-03-06T07:02:16.485Z,100235.66
2023-03-06T07:05:01.990Z,100230.34
2023-03-06T07:07:31.834Z,100227.75
2023-03-06T07:09:58.645Z,100238.25
2023-03-06T07:12:25.490Z,100234.53
2023-03-06T07:14:52.301Z,100234.53
2023-03-06T07:17:19.264Z,100238.00
2023-03-06T07:19:46.081Z,100235.28
2023-03-06T07:22:13.167Z,100245.72
2023-03-06T07:24:40.078Z,100245.59
2023-03-06T07:27:06.872Z,100240.94
2023-03-06T07:29:34.619Z,100246.84
2023-03-06T07:32:01.950Z,100246.00
2023-03-06T07:34:29.443Z,100242.41
2023-03-06T07:36:56.397Z,100241.41
2023-03-06T07:39:23.221Z,100242.16
2023-03-06T07:41:50.227Z,100242.03
2023-03-06T07:44:17.101Z,100245.41
2023-03-06T07:46:43.982Z,100242.53
2023-03-06T07:49:10.925Z,100244.97
2023-03-06T07:51:37.715Z,100242.94
2023-03-06T07:54:04.481Z,100242.69
2023-03-06T07:56:31.458Z,100244.16
2023-03-06T07:58:58.517Z,100248.34
2023-03-06T08:01:25.584Z,100245.44
2023-03-06T08:03:53.413Z,100240.72
2023-03-06T08:06:25.258Z,100240.53
2023-03-06T08:08:54.629Z,100245.69
2023-03-06T08:11:25.198Z,100242.78
2023-03-06T08:13:53.674Z,100248.66
2023-03-06T08:16:28.117Z,100246.72
2023-03-06T08:18:55.857Z,100250.25
2023-03-06T08:21:26.977Z,100247.50
2023-03-06T08:23:54.446Z,100249.25
2023-03-06T08:26:25.322Z,100250.72
2023-03-06T08:28:55.032Z,100254.66
2023-03-06T08:31:31.374Z,100254.31
2023-03-06T08:34:02.753Z,100254.75
2023-03-06T08:36:29.972Z,100261.53
2023-03-06T08:38:58.901Z,100259.34
2023-03-06T08:41:26.360Z,100257.44
2023-03-06T08:43:53.512Z,100262.66
2023-03-06T08:46:23.976Z,100266.81
2023-03-06T08:48:51.108Z,100262.06
2023-03-06T08:51:19.921Z,100265.53
2023-03-06T08:53:47.611Z,100264.50
2023-03-06T08:56:33.516Z,100256.13
2023-03-06T08:59:03.865Z,100258.97
2023-03-06T09:01:37.755Z,100253.16
2023-03-06T09:04:11.724Z,100257.09
2023-03-06T09:06:42.504Z,100242.28
2023-03-06T09:09:09.573Z,100248.84
2023-03-06T09:11:37.061Z,100241.06
2023-03-06T09:14:05.617Z,100241.44
2023-03-06T09:16:33.414Z,100246.69
2023-03-06T09:19:00.253Z,100238.59
2023-03-06T09:21:28.588Z,100242.13
2023-03-06T09:23:55.488Z,100242.25
2023-03-06T09:26:28.030Z,100250.25
2023-03-06T09:28:59.903Z,100248.28
2023-03-06T09:31:26.724Z,100251.97
2023-03-06T09:33:53.586Z,100253.03
2023-03-06T09:36:22.516Z,100252.66
2023-03-06T09:38:50.381Z,100248.38
2023-03-06T09:41:26.447Z,100246.81
2023-03-06T09:44:04.996Z,100253.72
2023-03-06T09:47:09.023Z,100256.66
2023-03-06T09:49:43.567Z,100245.47
2023-03-06T09:52:33.686Z,100243.41
2023-03-06T09:55:37.337Z,100246.50
2023-03-06T09:58:23.852Z,100252.03
2023-03-06T10:01:30.403Z,100244.97
2023-03-06T10:04:18.474Z,100253.25
2023-03-06T10:06:59.837Z,100252.22
2023-03-06T10:09:33.411Z,100250.28
2023-03-06T10:12:38.010Z,100250.81
2023-03-06T10:15:16.832Z,100245.28
2023-03-06T10:17:44.120Z,100253.19
2023-03-06T10:20:21.045Z,100246.31
2023-03-06T10:23:05.400Z,100250.47
2023-03-06T10:25:48.427Z,100243.19
2023-03-06T10:28:28.159Z,100258.50
2023-03-06T10:31:20.784Z,100250.28
2023-03-06T10:34:17.007Z,100251.28
2023-03-06T10:36:43.893Z,100248.84
2023-03-06T10:39:18.388Z,100246.44
2023-03-06T10:41:46.790Z,100248.38
2023-03-06T10:44:13.508Z,100246.16
2023-03-06T10:46:44.605Z,100242.88
2023-03-06T10:49:14.173Z,100243.38
2023-03-06T10:52:02.388Z,100249.59
2023-03-06T10:54:37.188Z,100238.53
2023-03-06T10:57:30.670Z,100248.19
2023-03-06T11:00:22.279Z,100244.69
2023-03-06T11:03:21.125Z,100239.81
2023-03-06T11:06:07.382Z,100250.16
2023-03-06T11:08:35.529Z,100247.97
2023-03-06T11:11:12.090Z,100251.59
2023-03-06T11:13:43.838Z,100244.91
2023-03-06T11:16:13.593Z,100241.72
2023-03-06T11:18:54.485Z,100241.34
2023-03-06T11:21:35.000Z,100242.31
2023-03-06T11:24:19.970Z,100243.63
2023-03-06T11:26:56.196Z,100239.41
2023-03-06T11:29:44.855Z,100244.47
2023-03-06T11:32:17.483Z,100240.19
2023-03-06T11:34:50.578Z,100236.16
2023-03-06T11:37:47.283Z,100234.72
2023-03-06T11:40:36.835Z,100228.59
2023-03-06T11:43:15.156Z,100229.16
2023-03-06T11:46:07.156Z,100217.47
2023-03-06T11:48:42.296Z,100217.28
2023-03-06T11:51:22.159Z,100213.94
2023-03-06T11:53:49.283Z,100215.50
2023-03-06T11:56:18.758Z,100212.22
2023-03-06T11:59:13.252Z,100217.69
2023-03-06T12:02:24.766Z,100210.25
2023-03-06T12:05:28.751Z,100204.53
2023-03-06T12:08:04.159Z,100201.34
2023-03-06T12:11:12.837Z,100196.72
2023-03-06T12:14:09.811Z,100192.84
2023-03-06T12:17:01.395Z,100185.34
2023-03-06T12:20:31.893Z,100178.47
2023-03-06T12:23:23.359Z,100175.44
2023-03-06T12:26:29.716Z,100180.59
2023-03-06T12:29:33.674Z,100170.69
2023-03-06T12:32:18.896Z,100176.81
2023-03-06T12:35:24.606Z,100180.13
2023-03-06T12:38:38.272Z,100168.03
2023-03-06T12:41:44.371Z,100156.59
2023-03-06T12:44:28.993Z,100156.56
2023-03-06T12:47:04.007Z,100156.91
2023-03-06T12:49:38.679Z,100159.03
2023-03-06T12:52:09.804Z,100155.19
2023-03-06T12:54:41.084Z,100152.16
2023-03-06T12:57:09.963Z,100145.28
2023-03-06T12:59:44.629Z,100139.91
2023-03-06T13:02:37.414Z,100142.03
2023-03-06T13:05:34.440Z,100143.22
2023-03-06T13:08:45.947Z,100135.00
2023-03-06T13:11:52.630Z,100133.38
2023-03-06T13:14:54.585Z,100133.09
2023-03-06T13:17:37.518Z,100133.50
2023-03-06T13:20:13.281Z,100132.63
2023-03-06T13:22:46.134Z,100132.53
2023-03-06T13:25:19.160Z,100118.75
2023-03-06T13:27:55.310Z,100119.38
2023-03-06T13:30:28.387Z,100114.31
2023-03-06T13:32:56.234Z,100119.09
2023-03-06T13:35:32.317Z,100113.13
2023-03-06T13:38:00.782Z,100112.53
2023-03-06T13:40:35.867Z,100112.88
2023-03-06T13:43:08.687Z,100106.38
2023-03-06T13:45:43.862Z,100111.50
2023-03-06T13:48:44.758Z,100109.41
2023-03-06T13:51:27.221Z,100106.38
2023-03-06T13:54:18.727Z,100106.31
2023-03-06T13:57:20.876Z,100095.19
2023-03-06T14:00:20.743Z,100105.97
2023-03-06T14:03:27.996Z,100096.91
2023-03-06T14:05:54.967Z,100092.09
2023-03-06T14:08:27.284Z,100089.63
2023-03-06T14:11:19.345Z,100089.41
2023-03-06T14:13:52.852Z,100089.63
2023-03-06T14:16:25.238Z,100074.66
2023-03-06T14:18:56.995Z,100080.25
2023-03-06T14:21:32.731Z,100076.41
2023-03-06T14:24:04.149Z,100069.88
2023-03-06T14:26:44.025Z,100070.63
2023-03-06T14:29:23.963Z,100066.91
2023-03-06T14:31:58.078Z,100063.19
2023-03-06T14:34:33.237Z,100065.25
2023-03-06T14:37:05.567Z,100058.94
2023-03-06T14:39:41.905Z,100059.41
2023-03-06T14:42:20.742Z,100051.16
2023-03-06T14:44:59.672Z,100058.22
2023-03-06T14:47:27.869Z,100043.91
2023-03-06T14:50:19.990Z,100048.88
2023-03-06T14:52:57.665Z,100044.34
2023-03-06T14:55:29.737Z,100043.44
2023-03-06T14:58:02.331Z,100024.31
2023-03-06T15:00:43.353Z,100032.34
2023-03-06T15:03:38.935Z,100028.13
2023-03-06T15:06:07.418Z,100030.28
2023-03-06T15:08:40.081Z,100025.56
2023-03-06T15:11:07.733Z,100031.59
2023-03-06T15:13:35.698Z,100024.31
2023-03-06T15:16:09.326Z,100023.66
2023-03-06T15:18:39.603Z,100036.66
2023-03-06T15:21:19.961Z,100027.28
2023-03-06T15:23:53.239Z,100026.41
2023-03-06T15:26:36.867Z,100025.88
2023-03-06T15:29:10.027Z,100012.38
2023-03-06T15:31:48.731Z,100018.94
2023-03-06T15:34:23.312Z,100005.00
2023-03-06T15:36:58.131Z,100002.25
2023-03-06T15:39:32.380Z,100004.44
2023-03-06T15:42:16.031Z,99995.34
2023-03-06T15:44:42.984Z,99994.66
2023-03-06T15:47:11.855Z,99996.19
2023-03-06T15:49:39.955Z,99992.56
2023-03-06T15:52:07.895Z,99985.09
2023-03-06T15:54:35.593Z,99988.16
2023-03-06T15:57:24.074Z,99982.41
2023-03-06T15:59:52.453Z,99972.47
2023-03-06T16:02:22.349Z,99972.75
2023-03-06T16:04:49.948Z,99963.28
2023-03-06T16:07:17.375Z,99964.44
2023-03-06T16:09:44.721Z,99959.25
2023-03-06T16:12:21.270Z,99954.88
2023-03-06T16:14:49.163Z,99949.03
2023-03-06T16:17:17.017Z,99941.28
2023-03-06T16:19:44.642Z,99941.66
2023-03-06T16:22:11.460Z,99940.91
2023-03-06T16:24:38.620Z,99939.97
2023-03-06T16:27:06.962Z,99930.09
2023-03-06T16:29:35.104Z,99934.63
2023-03-06T16:32:02.369Z,99938.06
2023-03-06T16:34:29.254Z,99929.53
2023-03-06T16:36:56.525Z,99938.63
2023-03-06T16:39:24.543Z,99931.03
2023-03-06T16:41:51.964Z,99933.94
2023-03-06T16:44:20.573Z,99931.34
2023-03-06T16:46:50.254Z,99929.91
2023-03-06T16:49:23.626Z,99927.72
2023-03-06T16:51:53.007Z,99922.72
2023-03-06T16:54:20.330Z,99924.63
2023-03-06T16:56:47.179Z,99928.47
2023-03-06T16:59:14.049Z,99924.06
2023-03-06T17:01:44.685Z,99919.66
2023-03-06T17:04:12.156Z,99914.09
2023-03-06T17:06:39.737Z,99921.19
2023-03-06T17:09:06.781Z,99926.53
2023-03-06T17:11:38.538Z,99927.41
2023-03-06T17:14:06.885Z,99907.06
2023-03-06T17:16:34.135Z,99898.63
2023-03-06T17:19:02.327Z,99904.34
2023-03-06T17:21:30.313Z,99899.56
2023-03-06T17:23:57.499Z,99905.47
2023-03-06T17:26:26.178Z,99889.97
2023-03-06T17:28:54.163Z,99908.28
2023-03-06T17:31:25.389Z,99886.66
2023-03-06T17:33:57.134Z,99898.88
2023-03-06T17:36:23.943Z,99898.44
2023-03-06T17:38:51.053Z,99900.72
2023-03-06T17:41:17.885Z,99897.44
2023-03-06T17:43:44.689Z,99897.00
2023-03-06T17:46:13.514Z,99899.88
2023-03-06T17:48:40.778Z,99893.91
2023-03-06T17:51:08.349Z,99889.63
2023-03-06T17:53:36.238Z,99904.69
2023-03-06T17:56:14.261Z,99897.53
2023-03-06T17:58:41.274Z,99886.84
2023-03-06T18:01:15.109Z,99890.47
2023-03-06T18:03:48.502Z,99884.16
2023-03-06T18:06:17.861Z,99876.00
2023-03-06T18:08:46.001Z,99879.09
2023-03-06T18:11:13.336Z,99881.31
2023-03-06T18:13:43.411Z,99870.25
2023-03-06T18:16:17.373Z,99872.69
2023-03-06T18:18:45.358Z,99870.56
2023-03-06T18:21:16.759Z,99865.91
2023-03-06T18:23:43.926Z,99862.22
2023-03-06T18:26:23.145Z,99861.91
2023-03-06T18:28:55.802Z,99859.16
2023-03-06T18:31:33.733Z,99852.78
2023-03-06T18:34:06.523Z,99848.28
2023-03-06T18:36:34.081Z,99853.81
2023-03-06T18:39:03.790Z,99847.63
2023-03-06T18:41:32.441Z,99845.88
2023-03-06T18:44:01.907Z,99839.69
2023-03-06T18:46:35.510Z,99832.44
2023-03-06T18:49:03.265Z,99826.91
2023-03-06T18:51:31.322Z,99827.06
2023-03-06T18:54:00.669Z,99819.22
2023-03-06T18:56:27.741Z,99808.66
2023-03-06T18:58:54.563Z,99816.75
2023-03-06T19:01:22.925Z,99811.59
2023-03-06T19:03:50.225Z,99808.16
2023-03-06T19:06:18.432Z,99806.41
2023-03-06T19:08:45.239Z,99799.38
2023-03-06T19:11:14.609Z,99790.59
2023-03-06T19:13:42.041Z,99792.50
2023-03-06T19:16:10.359Z,99786.28
2023-03-06T19:18:38.646Z,99788.00
2023-03-06T19:21:13.045Z,99784.47
2023-03-06T19:23:40.354Z,99779.13
2023-03-06T19:26:07.980Z,99778.16
2023-03-06T19:28:38.051Z,99774.56
2023-03-06T19:31:15.806Z,99765.56
2023-03-06T19:33:43.323Z,99769.22
2023-03-06T19:36:13.581Z,99761.94
2023-03-06T19:38:41.744Z,99769.22
2023-03-06T19:41:13.716Z,99758.88
2023-03-06T19:43:42.938Z,99762.84
2023-03-06T19:46:14.428Z,99761.31
2023-03-06T19:48:42.215Z,99753.53
2023-03-06T19:51:10.462Z,99744.63
2023-03-06T19:53:38.907Z,99753.53
2023-03-06T19:56:22.474Z,99746.69
2023-03-06T19:58:49.399Z,99741.72
2023-03-06T20:01:19.798Z,99739.59
2023-03-06T20:03:47.078Z,99727.66
2023-03-06T20:06:18.482Z,99720.19
2023-03-06T20:08:47.210Z,99725.97
2023-03-06T20:11:24.470Z,99725.56
2023-03-06T20:13:52.080Z,99715.31
2023-03-06T20:16:20.000Z,99710.34
2023-03-06T20:18:46.906Z,99705.38
2023-03-06T20:21:15.327Z,99691.44
2023-03-06T20:23:43.266Z,99694.25
2023-03-06T20:26:13.679Z,99693.66
2023-03-06T20:28:42.679Z,99679.75
2023-03-06T20:31:21.907Z,99688.94
2023-03-06T20:33:52.339Z,99674.91
2023-03-06T20:36:24.388Z,99672.69
2023-03-06T20:38:51.523Z,99670.28
2023-03-06T20:41:23.553Z,99667.78
2023-03-06T20:43:51.441Z,99670.44
2023-03-06T20:46:21.068Z,99656.19
2023-03-06T20:48:50.639Z,99643.69
2023-03-06T20:51:22.475Z,99645.50
2023-03-06T20:53:51.751Z,99646.44
2023-03-06T20:56:23.590Z,99647.22
2023-03-06T20:58:50.612Z,99644.38
2023-03-06T21:01:22.883Z,99638.09
2023-03-06T21:03:51.141Z,99632.75
2023-03-06T21:06:19.718Z,99646.78
2023-03-06T21:08:47.280Z,99631.47
2023-03-06T21:11:14.896Z,99628.63
2023-03-06T21:13:42.390Z,99628.47
2023-03-06T21:16:13.645Z,99630.94
2023-03-06T21:18:40.769Z,99619.31
2023-03-06T21:21:11.946Z,99624.50
2023-03-06T21:23:39.740Z,99628.69
2023-03-06T21:26:06.885Z,99628.53
2023-03-06T21:28:33.733Z,99615.84
2023-03-06T21:31:02.148Z,99609.47
2023-03-06T21:33:29.148Z,99605.66
2023-03-06T21:35:56.011Z,99594.72
2023-03-06T21:38:22.955Z,99604.53
2023-03-06T21:40:49.840Z,99597.41
2023-03-06T21:43:17.602Z,99599.97
2023-03-06T21:45:49.321Z,99598.94
2023-03-06T21:48:16.361Z,99589.09
2023-03-06T21:50:43.200Z,99593.41
2023-03-06T21:53:10.049Z,99587.03
2023-03-06T21:55:43.148Z,99584.28
2023-03-06T21:58:10.945Z,99588.56
2023-03-06T22:00:38.723Z,99580.38
2023-03-06T22:03:06.595Z,99582.66
2023-03-06T22:05:33.409Z,99586.09
2023-03-06T22:08:00.355Z,99581.63
2023-03-06T22:10:27.180Z,99579.72
2023-03-06T22:12:53.961Z,99576.19
2023-03-06T22:15:21.883Z,99571.63
2023-03-06T22:17:48.826Z,99568.84
2023-03-06T22:20:15.943Z,99557.22
2023-03-06T22:22:43.681Z,99557.88
2023-03-06T22:25:11.877Z,99544.53
2023-03-06T22:27:39.220Z,99538.25
2023-03-06T22:30:07.150Z,99536.34
2023-03-06T22:32:34.019Z,99542.44
2023-03-06T22:35:01.034Z,99536.13
2023-03-06T22:37:27.913Z,99531.56
2023-03-06T22:39:55.896Z,99538.63
2023-03-06T22:42:22.784Z,99541.09
2023-03-06T22:44:49.568Z,99542.91
2023-03-06T22:47:16.382Z,99535.69
2023-03-06T22:49:43.139Z,99525.84
2023-03-06T22:52:09.975Z,99526.59
2023-03-06T22:54:36.867Z,99527.53
2023-03-06T22:57:04.318Z,99518.78
2023-03-06T22:59:31.201Z,99528.50
2023-03-06T23:01:57.966Z,99536.53
2023-03-06T23:04:24.885Z,99539.28
2023-03-06T23:06:51.682Z,99531.19
2023-03-06T23:09:21.506Z,99546.25
2023-03-06T23:12:09.015Z,99542.63
2023-03-06T23:14:54.382Z,99548.72
2023-03-06T23:17:39.322Z,99548.72
2023-03-06T23:20:24.625Z,99547.13
2023-03-06T23:23:10.191Z,99540.03
2023-03-06T23:25:44.504Z,99527.53
2023-03-06T23:28:12.388Z,99539.94
2023-03-06T23:30:40.892Z,99536.53
2023-03-06T23:33:08.893Z,99535.56
2023-03-06T23:35:37.836Z,99538.03
2023-03-06T23:38:05.187Z,99532.69
2023-03-06T23:40:33.925Z,99522.88
2023-03-06T23:43:01.270Z,99529.28
2023-03-06T23:45:28.079Z,99524.88
2023-03-06T23:47:55.043Z,99514.41
2023-03-06T23:50:23.080Z,99515.16
2023-03-06T23:52:54.878Z,99511.72
2023-03-06T23:55:22.176Z,99517.06
2023-03-06T23:57:49.041Z,99515.25
